createdAt,value
2019-05-25T00:04:36.000Z,9
2019-05-25T00:09:35.960Z,9
2019-05-25T00:14:35.952Z,9
2019-05-25T00:19:35.954Z,9
2019-05-25T00:24:35.954Z,8
2019-05-25T00:29:35.958Z,8
2019-05-25T00:34:35.962Z,10
2019-05-25T00:39:35.968Z,9
2019-05-25T00:44:35.966Z,9
2019-05-25T00:49:35.959Z,9
2019-05-25T00:54:35.961Z,9
2019-05-25T00:59:35.960Z,11
2019-05-25T01:04:35.962Z,11
2019-05-25T01:09:35.966Z,10
2019-05-25T01:14:35.963Z,10
2019-05-25T01:19:35.966Z,10
2019-05-25T01:24:44.154Z,11
2019-05-25T01:29:35.962Z,11
2019-05-25T01:34:35.973Z,12
2019-05-25T01:39:35.965Z,10
2019-05-25T01:44:35.963Z,10
2019-05-25T01:49:35.973Z,10
2019-05-25T01:54:35.973Z,10
2019-05-25T01:59:35.983Z,10
2019-05-25T02:04:35.985Z,9
2019-05-25T02:09:35.988Z,9
2019-05-25T02:14:35.983Z,10
2019-05-25T02:19:35.987Z,10
2019-05-25T02:24:35.995Z,10
2019-05-25T02:29:35.995Z,10
2019-05-25T02:34:36.011Z,9
2019-05-25T02:39:35.997Z,10
2019-05-25T02:44:35.993Z,9
2019-05-25T02:49:36.007Z,10
2019-05-25T02:54:36.005Z,10
2019-05-25T02:59:36.010Z,12
2019-05-25T03:04:36.009Z,12
2019-05-25T03:09:36.010Z,13
2019-05-25T03:14:36.015Z,13
2019-05-25T03:19:36.015Z,12
2019-05-25T03:24:36.017Z,13
2019-05-25T03:29:36.028Z,12
2019-05-25T03:34:36.038Z,12
2019-05-25T03:39:36.040Z,12
2019-05-25T03:44:36.037Z,11
2019-05-25T03:49:36.041Z,12
2019-05-25T03:54:36.045Z,11
2019-05-25T03:59:36.050Z,12
2019-05-25T04:04:36.048Z,12
2019-05-25T04:09:36.051Z,13
2019-05-25T04:14:36.055Z,14
2019-05-25T04:19:36.057Z,13
2019-05-25T04:24:36.053Z,12
2019-05-25T04:29:36.059Z,12
2019-05-25T04:34:36.072Z,12
2019-05-25T04:39:36.072Z,13
2019-05-25T04:44:36.078Z,11
2019-05-25T04:49:36.083Z,12
2019-05-25T04:54:36.096Z,13
2019-05-25T04:59:36.098Z,11
2019-05-25T05:04:36.094Z,12
2019-05-25T05:09:36.093Z,12
2019-05-25T05:14:36.096Z,12
2019-05-25T05:19:36.095Z,12
2019-05-25T05:24:36.101Z,12
2019-05-25T05:29:36.103Z,12
2019-05-25T05:34:36.108Z,13
2019-05-25T05:39:36.168Z,12
2019-05-25T05:44:36.107Z,12
2019-05-25T05:49:36.118Z,13
2019-05-25T05:54:36.119Z,13
2019-05-25T05:59:36.106Z,13
2019-05-25T06:04:36.135Z,12
2019-05-25T06:09:36.122Z,12
2019-05-25T06:14:36.131Z,13
2019-05-25T06:19:36.131Z,13
2019-05-25T06:24:36.131Z,13
2019-05-25T06:29:36.125Z,11
2019-05-25T06:34:36.127Z,13
2019-05-25T06:39:36.144Z,11
2019-05-25T06:44:36.188Z,12
2019-05-25T06:49:36.135Z,11
2019-05-25T06:54:36.137Z,15
2019-05-25T06:59:36.142Z,14
2019-05-25T07:04:36.142Z,12
2019-05-25T07:09:36.154Z,15
2019-05-25T07:14:36.153Z,12
2019-05-25T07:19:36.159Z,13
2019-05-25T07:24:36.157Z,12
2019-05-25T07:29:36.156Z,14
2019-05-25T07:34:36.157Z,12
2019-05-25T07:39:36.194Z,13
2019-05-25T07:44:36.157Z,12
2019-05-25T07:49:36.170Z,12
2019-05-25T07:54:36.169Z,13
2019-05-25T07:59:36.174Z,12
2019-05-25T08:04:36.168Z,14
2019-05-25T08:09:36.174Z,12
2019-05-25T08:14:36.184Z,12
2019-05-25T08:19:36.181Z,13
2019-05-25T08:24:36.174Z,12
2019-05-25T08:29:36.179Z,12
2019-05-25T08:34:36.192Z,13
2019-05-25T08:39:36.182Z,13
2019-05-25T08:44:36.186Z,13
2019-05-25T08:49:36.187Z,12
2019-05-25T08:54:36.186Z,11
2019-05-25T08:59:36.187Z,10
2019-05-25T09:04:36.191Z,11
2019-05-25T09:09:36.197Z,10
2019-05-25T09:14:36.199Z,10
2019-05-25T09:19:36.200Z,11
2019-05-25T09:24:36.198Z,10
2019-05-25T09:29:36.198Z,10
2019-05-25T09:34:36.196Z,11
2019-05-25T09:39:36.199Z,13
2019-05-25T09:44:36.211Z,11
2019-05-25T09:49:36.200Z,11
2019-05-25T09:54:36.207Z,9
2019-05-25T09:59:36.206Z,10
2019-05-25T10:04:36.204Z,9
2019-05-25T10:09:39.852Z,14
2019-05-25T10:14:36.214Z,12
2019-05-25T10:19:36.219Z,12
2019-05-25T10:24:36.210Z,12
2019-05-25T10:29:37.650Z,13
2019-05-25T10:34:36.208Z,13
2019-05-25T10:39:36.205Z,13
2019-05-25T10:44:36.201Z,15
2019-05-25T10:49:36.209Z,13
2019-05-25T10:54:36.207Z,13
2019-05-25T10:59:50.059Z,11
2019-05-25T11:04:36.213Z,11
2019-05-25T11:09:36.210Z,10
2019-05-25T11:14:36.218Z,11
2019-05-25T11:19:36.215Z,10
2019-05-25T11:24:36.229Z,10
2019-05-25T11:29:36.217Z,10
2019-05-25T11:34:36.212Z,9
2019-05-25T11:39:36.220Z,9
2019-05-25T11:44:36.211Z,9
2019-05-25T11:49:36.205Z,10
2019-05-25T11:54:36.223Z,10
2019-05-25T11:59:36.223Z,9
2019-05-25T12:04:36.266Z,9
2019-05-25T12:09:36.223Z,9
2019-05-25T12:14:36.219Z,8
2019-05-25T12:19:36.224Z,11
2019-05-25T12:24:36.222Z,9
2019-05-25T12:29:36.226Z,9
2019-05-25T12:34:36.224Z,9
2019-05-25T12:39:36.226Z,9
2019-05-25T12:44:36.313Z,10
2019-05-25T12:49:49.842Z,11
2019-05-25T12:54:36.233Z,12
2019-05-25T12:59:36.229Z,14
2019-05-25T13:04:36.226Z,13
2019-05-25T13:09:36.227Z,13
2019-05-25T13:14:36.231Z,10
2019-05-25T13:19:36.234Z,7
2019-05-25T13:24:36.240Z,6
2019-05-25T13:29:36.240Z,9
2019-05-25T13:34:36.232Z,7
2019-05-25T13:39:36.404Z,8
2019-05-25T13:44:36.234Z,8
2019-05-25T13:49:36.325Z,7
2019-05-25T13:54:36.380Z,5
2019-05-25T13:59:36.242Z,5
2019-05-25T14:04:36.252Z,5
2019-05-25T14:09:36.252Z,6
2019-05-25T14:14:36.255Z,6
2019-05-25T14:19:36.252Z,7
2019-05-25T14:24:36.272Z,6
2019-05-25T14:29:36.282Z,9
2019-05-25T14:34:36.258Z,7
2019-05-25T14:39:36.264Z,8
2019-05-25T14:44:36.259Z,9
2019-05-25T14:49:36.268Z,8
2019-05-25T14:54:36.267Z,8
2019-05-25T14:59:36.272Z,8
2019-05-25T15:04:36.274Z,9
2019-05-25T15:09:36.275Z,8
2019-05-25T15:14:36.279Z,8
2019-05-25T15:19:36.285Z,8
2019-05-25T15:24:36.275Z,9
2019-05-25T15:29:36.274Z,11
2019-05-25T15:34:36.280Z,12
2019-05-25T15:39:36.284Z,11
2019-05-25T15:44:36.284Z,8
2019-05-25T15:49:36.288Z,10
2019-05-25T15:54:36.298Z,7
2019-05-25T15:59:36.293Z,8
2019-05-25T16:04:36.298Z,6
2019-05-25T16:09:36.298Z,8
2019-05-25T16:14:36.302Z,8
2019-05-25T16:19:36.302Z,11
2019-05-25T16:24:36.296Z,12
2019-05-25T16:29:36.304Z,12
2019-05-25T16:34:36.304Z,12
2019-05-25T16:39:36.306Z,12
2019-05-25T16:44:36.310Z,10
2019-05-25T16:49:36.314Z,11
2019-05-25T16:54:36.316Z,9
2019-05-25T16:59:36.317Z,9
2019-05-25T17:04:36.314Z,8
2019-05-25T17:09:36.316Z,9
2019-05-25T17:14:36.316Z,9
2019-05-25T17:19:36.313Z,8
2019-05-25T17:24:36.310Z,8
2019-05-25T17:29:36.304Z,6
2019-05-25T17:34:36.335Z,7
2019-05-25T17:39:36.329Z,6
2019-05-25T17:44:36.330Z,6
2019-05-25T17:49:36.328Z,6
2019-05-25T17:54:36.338Z,6
2019-05-25T17:59:36.337Z,5
2019-05-25T18:04:36.335Z,6
2019-05-25T18:09:36.339Z,5
2019-05-25T18:14:36.342Z,6
2019-05-25T18:19:36.339Z,5
2019-05-25T18:24:36.336Z,5
2019-05-25T18:29:36.340Z,5
2019-05-25T18:34:36.344Z,4
2019-05-25T18:39:36.411Z,5
2019-05-25T18:44:36.359Z,5
2019-05-25T18:49:36.344Z,4
2019-05-25T18:54:36.345Z,4
2019-05-25T18:59:36.347Z,3
2019-05-25T19:04:44.156Z,4
2019-05-25T19:09:36.343Z,5
2019-05-25T19:14:36.343Z,4
2019-05-25T19:19:36.350Z,5
2019-05-25T19:24:36.341Z,5
2019-05-25T19:29:36.367Z,5
2019-05-25T19:34:36.354Z,5
2019-05-25T19:39:36.362Z,5
2019-05-25T19:44:36.357Z,5
2019-05-25T19:49:36.359Z,5
2019-05-25T19:54:36.364Z,7
2019-05-25T19:59:36.361Z,7
2019-05-25T20:04:36.354Z,9
2019-05-25T20:09:36.357Z,11
2019-05-25T20:14:36.368Z,7
2019-05-25T20:19:36.359Z,8
2019-05-25T20:24:36.361Z,9
2019-05-25T20:29:36.359Z,8
2019-05-25T20:34:36.365Z,6
2019-05-25T20:39:36.363Z,8
2019-05-25T20:44:36.352Z,7
2019-05-25T20:49:36.353Z,7
2019-05-25T20:54:36.363Z,8
2019-05-25T20:59:36.354Z,10
2019-05-25T21:04:36.360Z,9
2019-05-25T21:09:36.360Z,8
2019-05-25T21:14:36.361Z,7
2019-05-25T21:19:36.357Z,7
2019-05-25T21:24:36.363Z,7
2019-05-25T21:29:36.366Z,7
2019-05-25T21:34:36.387Z,8
2019-05-25T21:39:36.373Z,7
2019-05-25T21:44:36.373Z,8
2019-05-25T21:49:36.437Z,8
2019-05-25T21:54:36.381Z,7
2019-05-25T21:59:36.383Z,7
2019-05-25T22:04:36.386Z,7
2019-05-25T22:09:36.392Z,8
2019-05-25T22:14:36.395Z,8
2019-05-25T22:19:36.400Z,9
2019-05-25T22:24:36.401Z,9
2019-05-25T22:29:36.403Z,9
2019-05-25T22:34:36.408Z,10
2019-05-25T22:39:36.410Z,11
2019-05-25T22:44:36.408Z,11
2019-05-25T22:49:36.413Z,10
2019-05-25T22:54:36.413Z,9
2019-05-25T22:59:36.421Z,9
2019-05-25T23:04:36.417Z,9
2019-05-25T23:09:36.423Z,8
2019-05-25T23:14:36.426Z,8
2019-05-25T23:19:36.423Z,9
2019-05-25T23:24:36.421Z,8
2019-05-25T23:29:36.427Z,8
2019-05-25T23:34:36.425Z,8
2019-05-25T23:39:36.431Z,8
2019-05-25T23:44:36.440Z,8
2019-05-25T23:49:36.430Z,9
2019-05-25T23:54:36.430Z,9
2019-05-25T23:59:36.431Z,9
